Time;durP1;ratioP1;P1;durP2;ratioP2;P2;SDS_P1;SDS_P2;PMS_P1;PMS_P2;Temp;Humidity;BMP_temperature;BMP_pressure;BME280_temperature;BME280_humidity;BME280_pressure;Samples;Min_cycle;Max_cycle;Signal;HPM_P1;HPM_P2
2023/09/03 00:00:54;;;;;;;3.38;2.30;;;17.50;99.90;;;;;;5086783;28;20040;-36
2023/09/03 00:03:20;;;;;;;2.58;2.30;;;17.60;99.90;;;;;;5085512;28;20353;-35
2023/09/03 00:05:49;;;;;;;4.55;2.60;;;17.60;99.90;;;;;;5085409;28;20471;-36
2023/09/03 00:08:15;;;;;;;3.67;2.58;;;17.50;99.90;;;;;;5086711;28;20138;-35
2023/09/03 00:10:41;;;;;;;3.45;2.92;;;17.50;99.90;;;;;;5086136;28;20138;-35
2023/09/03 00:13:07;;;;;;;2.83;2.47;;;17.50;99.90;;;;;;5086445;28;20044;-37
2023/09/03 00:15:33;;;;;;;3.75;2.90;;;17.50;99.90;;;;;;5086878;28;20031;-37
2023/09/03 00:17:58;;;;;;;2.95;2.55;;;17.40;99.90;;;;;;5085227;28;20031;-36
2023/09/03 00:20:24;;;;;;;2.40;2.20;;;17.40;99.90;;;;;;5086804;28;20139;-35
2023/09/03 00:22:50;;;;;;;3.13;2.35;;;17.40;99.90;;;;;;5086330;28;20028;-35
2023/09/03 00:25:15;;;;;;;3.88;2.05;;;17.30;99.90;;;;;;5085270;28;20020;-37
2023/09/03 00:27:41;;;;;;;2.53;2.33;;;17.30;99.90;;;;;;5086252;28;20475;-35
2023/09/03 00:30:07;;;;;;;3.83;2.70;;;17.20;99.90;;;;;;5085200;28;20042;-35
2023/09/03 00:32:33;;;;;;;4.43;2.72;;;17.20;99.90;;;;;;5085328;28;20040;-35
2023/09/03 00:34:58;;;;;;;3.13;2.67;;;17.20;99.90;;;;;;5085893;28;20027;-36
2023/09/03 00:37:33;;;;;;;2.80;2.60;;;17.20;99.90;;;;;;5085969;28;20028;-36
2023/09/03 00:40:01;;;;;;;2.80;2.50;;;17.10;99.90;;;;;;5085637;28;20069;-36
2023/09/03 00:42:27;;;;;;;2.95;2.65;;;17.10;99.90;;;;;;5086099;28;20044;-35
2023/09/03 00:44:52;;;;;;;2.72;2.53;;;17.10;99.90;;;;;;5086161;28;20031;-36
2023/09/03 00:47:18;;;;;;;3.33;2.45;;;17.10;99.90;;;;;;5085142;28;20576;-35
2023/09/03 00:49:44;;;;;;;3.13;2.72;;;17.10;99.90;;;;;;5086208;28;20034;-36
2023/09/03 00:52:11;;;;;;;2.92;2.58;;;17.00;99.90;;;;;;5085064;28;20040;-35
2023/09/03 00:54:37;;;;;;;2.85;2.65;;;17.00;99.90;;;;;;5085877;28;20055;-35
2023/09/03 00:57:06;;;;;;;3.30;2.92;;;17.00;99.90;;;;;;5085816;28;20127;-35
2023/09/03 00:59:33;;;;;;;3.80;3.08;;;16.90;99.90;;;;;;5064749;28;20708;-37
2023/09/03 01:01:59;;;;;;;3.00;2.70;;;16.90;99.90;;;;;;5079882;28;20386;-36
2023/09/03 01:04:24;;;;;;;2.90;2.70;;;16.90;99.90;;;;;;5085364;28;20020;-35
2023/09/03 01:06:51;;;;;;;3.40;3.10;;;16.80;99.90;;;;;;5084701;28;20028;-37
2023/09/03 01:09:18;;;;;;;3.75;3.45;;;16.80;99.90;;;;;;5084948;28;20028;-35
2023/09/03 01:12:01;;;;;;;3.60;3.30;;;16.80;99.90;;;;;;5084846;28;20032;-35
2023/09/03 01:15:05;;;;;;;3.97;2.88;;;16.80;99.90;;;;;;5085063;28;20039;-36
2023/09/03 01:17:48;;;;;;;3.65;3.35;;;16.90;99.90;;;;;;5082654;28;20503;-35
2023/09/03 01:20:24;;;;;;;3.00;2.80;;;16.80;99.90;;;;;;5064227;28;20025;-35
2023/09/03 01:23:11;;;;;;;3.03;2.72;;;16.80;99.90;;;;;;5081106;28;20028;-36
2023/09/03 01:26:27;;;;;;;3.22;2.92;;;16.80;99.90;;;;;;5065570;28;20086;-36
2023/09/03 01:28:54;;;;;;;3.75;3.20;;;16.80;99.90;;;;;;5022368;28;20021;-36
2023/09/03 01:31:20;;;;;;;3.50;3.20;;;16.80;99.90;;;;;;5021514;28;20050;-34
2023/09/03 01:33:47;;;;;;;3.30;3.00;;;16.80;99.90;;;;;;5053831;28;20028;-35
2023/09/03 01:36:14;;;;;;;3.30;3.00;;;16.90;99.90;;;;;;5084744;28;20035;-35
2023/09/03 01:38:43;;;;;;;3.60;3.30;;;16.90;99.90;;;;;;5085152;28;20020;-36
2023/09/03 01:41:09;;;;;;;3.92;3.35;;;16.80;99.90;;;;;;5084545;28;20479;-33
2023/09/03 01:43:34;;;;;;;5.35;3.42;;;16.80;99.90;;;;;;5083932;28;20024;-35
2023/09/03 01:46:10;;;;;;;3.45;3.15;;;16.80;99.90;;;;;;5084880;28;20110;-35
2023/09/03 01:48:59;;;;;;;4.00;3.63;;;16.90;99.90;;;;;;5084318;28;20031;-35
2023/09/03 01:51:57;;;;;;;3.92;3.42;;;16.90;99.90;;;;;;5064592;28;20586;-35
2023/09/03 01:54:27;;;;;;;4.38;3.78;;;16.90;99.90;;;;;;5084270;28;20034;-36
2023/09/03 01:57:04;;;;;;;3.45;2.90;;;16.90;99.90;;;;;;5084261;28;20326;-35
2023/09/03 02:00:02;;;;;;;3.58;3.00;;;16.90;99.90;;;;;;5084500;28;20619;-36
2023/09/03 02:02:29;;;;;;;3.50;3.20;;;16.90;99.90;;;;;;5079519;28;20044;-35
2023/09/03 02:04:55;;;;;;;3.65;3.33;;;16.90;99.90;;;;;;5084789;28;20027;-44
2023/09/03 02:07:21;;;;;;;3.78;3.30;;;16.90;99.90;;;;;;5084549;28;20031;-40
2023/09/03 02:09:47;;;;;;;3.70;3.22;;;16.80;99.90;;;;;;5084695;28;20361;-34
2023/09/03 02:12:16;;;;;;;4.10;3.60;;;16.80;99.90;;;;;;5084550;28;20031;-35
2023/09/03 02:14:42;;;;;;;3.38;3.08;;;16.80;99.90;;;;;;5083962;28;20518;-36
2023/09/03 02:17:09;;;;;;;4.45;3.28;;;16.80;99.90;;;;;;5083907;28;20035;-34
2023/09/03 02:19:34;;;;;;;3.80;3.22;;;16.80;99.90;;;;;;5084403;28;20031;-35
2023/09/03 02:22:00;;;;;;;3.30;3.00;;;16.80;99.90;;;;;;5084579;28;20044;-35
2023/09/03 02:24:25;;;;;;;3.92;3.28;;;16.80;99.90;;;;;;5084512;28;20534;-34
2023/09/03 02:26:51;;;;;;;4.85;3.50;;;16.80;99.90;;;;;;5084856;28;20507;-36
2023/09/03 02:29:17;;;;;;;3.92;3.53;;;16.80;99.90;;;;;;5083549;28;20024;-35
2023/09/03 02:31:42;;;;;;;4.45;3.70;;;16.80;99.90;;;;;;5083968;28;20123;-35
2023/09/03 02:34:09;;;;;;;3.63;3.33;;;16.80;99.90;;;;;;5083431;28;20778;-37
2023/09/03 02:36:38;;;;;;;3.92;3.60;;;16.80;99.90;;;;;;5084992;28;20020;-36
2023/09/03 02:39:06;;;;;;;4.50;4.10;;;16.80;99.90;;;;;;5083926;28;20032;-36
2023/09/03 02:41:32;;;;;;;3.78;3.40;;;16.80;99.90;;;;;;5084027;28;20025;-36
2023/09/03 02:43:58;;;;;;;4.35;3.80;;;16.70;99.90;;;;;;5083734;28;20043;-35
2023/09/03 02:46:24;;;;;;;6.03;4.10;;;16.70;99.90;;;;;;5083558;28;20044;-35
2023/09/03 02:48:53;;;;;;;5.57;4.40;;;16.70;99.90;;;;;;5084734;28;20097;-35
2023/09/03 02:51:25;;;;;;;4.13;3.80;;;16.70;99.90;;;;;;5083796;28;20032;-36
2023/09/03 02:53:51;;;;;;;4.75;4.35;;;16.70;99.90;;;;;;5084285;28;20039;-36
2023/09/03 02:56:17;;;;;;;4.50;3.95;;;16.70;99.90;;;;;;5083507;28;20560;-36
2023/09/03 02:58:46;;;;;;;4.30;3.90;;;16.70;99.90;;;;;;5084078;28;20028;-35
2023/09/03 03:01:14;;;;;;;5.00;3.90;;;16.70;99.90;;;;;;5083591;28;20564;-34
2023/09/03 03:03:43;;;;;;;4.40;4.00;;;16.70;99.90;;;;;;5064524;28;20200;-35
2023/09/03 03:06:10;;;;;;;4.55;4.15;;;16.60;99.90;;;;;;5077280;28;20546;-35
2023/09/03 03:08:38;;;;;;;4.90;4.50;;;16.60;99.90;;;;;;5084088;28;20020;-36
2023/09/03 03:11:12;;;;;;;4.40;4.00;;;16.60;99.90;;;;;;5083583;28;20020;-36
2023/09/03 03:13:41;;;;;;;4.32;3.92;;;16.60;99.90;;;;;;5083165;28;20036;-35
2023/09/03 03:16:11;;;;;;;5.30;3.90;;;16.60;99.90;;;;;;5083121;28;20039;-36
2023/09/03 03:18:39;;;;;;;3.97;3.65;;;16.50;99.90;;;;;;5083751;28;20543;-35
2023/09/03 03:21:17;;;;;;;4.20;3.35;;;16.50;99.90;;;;;;5082627;28;20153;-35
2023/09/03 03:23:47;;;;;;;4.15;3.75;;;16.40;99.90;;;;;;5084194;28;20089;-35
2023/09/03 03:26:13;;;;;;;3.88;3.58;;;16.30;99.90;;;;;;5083308;28;20464;-35
2023/09/03 03:28:39;;;;;;;4.30;3.90;;;16.30;99.90;;;;;;5087279;28;20031;-33
2023/09/03 03:31:11;;;;;;;4.65;4.25;;;16.30;99.90;;;;;;5086702;28;20019;-35
2023/09/03 03:33:37;;;;;;;;;;;16.30;99.90;;;;;;5087989;28;20039;-35
2023/09/03 03:36:04;;;;;;;5.10;4.05;;;16.30;99.90;;;;;;5086663;28;19915;-35
2023/09/03 03:38:30;;;;;;;4.95;4.45;;;16.30;99.90;;;;;;5087917;28;20428;-35
2023/09/03 03:41:11;;;;;;;5.95;4.22;;;16.20;99.90;;;;;;5086655;28;20107;-36
2023/09/03 03:43:39;;;;;;;4.40;3.97;;;16.20;99.90;;;;;;5087134;28;20426;-35
2023/09/03 03:46:06;;;;;;;6.28;4.90;;;16.20;99.90;;;;;;5086458;28;20035;-36
2023/09/03 03:48:32;;;;;;;5.40;4.90;;;16.10;99.90;;;;;;5086293;28;20016;-34
2023/09/03 03:51:00;;;;;;;5.75;5.15;;;16.10;99.90;;;;;;5086933;28;20043;-38
2023/09/03 03:53:30;;;;;;;4.45;4.05;;;16.10;99.90;;;;;;5085950;28;20031;-35
2023/09/03 03:56:02;;;;;;;4.68;4.18;;;16.10;99.90;;;;;;5086445;28;20095;-35
2023/09/03 03:58:29;;;;;;;5.15;4.43;;;16.10;99.90;;;;;;5087019;28;20016;-35
2023/09/03 04:00:55;;;;;;;4.55;4.15;;;16.10;99.90;;;;;;5087127;28;20040;-36
2023/09/03 04:03:22;;;;;;;5.28;4.78;;;16.10;99.90;;;;;;5086170;28;20035;-35
2023/09/03 04:06:02;;;;;;;6.75;4.07;;;16.10;99.90;;;;;;5087604;28;20077;-35
2023/09/03 04:08:29;;;;;;;5.20;4.35;;;16.10;99.90;;;;;;5087113;28;20028;-36
2023/09/03 04:11:02;;;;;;;6.20;4.13;;;16.10;99.90;;;;;;5066340;28;20029;-36
2023/09/03 04:13:28;;;;;;;;;;;16.10;99.90;;;;;;5082583;28;20085;-35
2023/09/03 04:15:54;;;;;;;5.03;3.80;;;16.10;99.90;;;;;;5087084;28;19915;-35
2023/09/03 04:18:20;;;;;;;4.70;4.30;;;16.10;99.90;;;;;;5085730;28;20075;-35
2023/09/03 04:20:57;;;;;;;5.13;4.35;;;16.00;99.90;;;;;;5086680;28;20024;-35
2023/09/03 04:23:26;;;;;;;4.55;3.85;;;16.00;99.90;;;;;;5085882;28;20032;-36
2023/09/03 04:25:52;;;;;;;4.07;3.70;;;16.00;99.90;;;;;;5087176;28;20020;-36
2023/09/03 04:28:19;;;;;;;5.03;4.50;;;16.00;99.90;;;;;;5085958;28;20095;-36
2023/09/03 04:30:45;;;;;;;4.20;3.80;;;15.90;99.90;;;;;;5086262;28;20032;-35
2023/09/03 04:33:11;;;;;;;4.80;4.10;;;16.00;99.90;;;;;;5085532;28;20580;-35
2023/09/03 04:35:37;;;;;;;4.78;4.03;;;16.00;99.90;;;;;;5086964;28;20052;-36
2023/09/03 04:38:04;;;;;;;5.47;4.50;;;16.00;99.90;;;;;;5084705;28;20032;-35
2023/09/03 04:40:37;;;;;;;4.88;4.38;;;16.00;99.90;;;;;;5085964;28;20069;-35
2023/09/03 04:43:04;;;;;;;4.38;3.97;;;16.00;99.90;;;;;;5085794;28;20031;-35
2023/09/03 04:45:30;;;;;;;4.55;4.00;;;16.00;99.90;;;;;;5084916;28;20792;-35
2023/09/03 04:47:57;;;;;;;5.35;4.10;;;16.00;99.90;;;;;;5086267;28;20028;-35
2023/09/03 04:50:23;;;;;;;4.45;3.90;;;16.00;99.90;;;;;;5086489;28;20016;-35
2023/09/03 04:52:49;;;;;;;5.05;4.13;;;16.00;99.90;;;;;;5085227;28;20045;-35
2023/09/03 04:55:15;;;;;;;4.40;3.85;;;15.90;99.90;;;;;;5085830;28;20107;-34
2023/09/03 04:57:41;;;;;;;4.40;3.95;;;15.90;99.90;;;;;;5086248;28;20139;-35
2023/09/03 05:00:10;;;;;;;7.55;4.30;;;15.90;99.90;;;;;;5084260;28;20044;-35
2023/09/03 05:02:39;;;;;;;4.50;4.10;;;15.90;99.90;;;;;;5086338;28;20032;-36
2023/09/03 05:05:05;;;;;;;4.63;4.00;;;15.90;99.90;;;;;;5085505;28;20016;-36
2023/09/03 05:07:31;;;;;;;4.75;4.30;;;15.90;99.90;;;;;;5085652;28;20028;-36
2023/09/03 05:09:57;;;;;;;5.25;4.70;;;15.90;99.90;;;;;;5085599;28;20036;-36
2023/09/03 05:12:23;;;;;;;4.88;4.03;;;15.90;99.90;;;;;;5085158;28;20035;-36
2023/09/03 05:14:49;;;;;;;4.72;4.07;;;15.90;99.90;;;;;;5085439;28;20108;-36
2023/09/03 05:17:15;;;;;;;4.70;4.30;;;15.90;99.90;;;;;;5085163;28;20115;-35
2023/09/03 05:19:40;;;;;;;5.10;4.35;;;15.90;99.90;;;;;;5084988;28;20690;-37
2023/09/03 05:22:09;;;;;;;5.28;4.13;;;15.90;99.90;;;;;;5084274;28;20032;-36
2023/09/03 05:24:35;;;;;;;4.60;4.20;;;15.90;99.90;;;;;;5085569;28;20016;-35
2023/09/03 05:27:00;;;;;;;4.40;4.00;;;15.90;99.90;;;;;;5084495;28;20467;-36
2023/09/03 05:29:26;;;;;;;4.20;3.80;;;15.90;99.90;;;;;;5085221;28;20024;-36
2023/09/03 05:31:52;;;;;;;4.80;4.40;;;15.90;99.90;;;;;;5085424;28;20039;-35
2023/09/03 05:34:18;;;;;;;4.43;3.85;;;15.90;99.90;;;;;;5083894;28;20491;-34
2023/09/03 05:36:43;;;;;;;5.20;3.90;;;15.90;99.90;;;;;;5085138;28;20020;-36
2023/09/03 05:39:09;;;;;;;4.72;4.07;;;15.90;99.90;;;;;;5085531;28;20372;-35
2023/09/03 05:41:35;;;;;;;4.65;4.15;;;15.90;99.90;;;;;;5084358;28;20149;-36
2023/09/03 05:44:06;;;;;;;5.75;4.22;;;15.90;99.90;;;;;;5085161;28;20108;-36
2023/09/03 05:46:32;;;;;;;4.20;3.80;;;16.00;99.90;;;;;;5084902;28;20020;-35
2023/09/03 05:49:06;;;;;;;5.15;4.63;;;16.00;99.90;;;;;;5083263;28;20050;-36
2023/09/03 05:51:35;;;;;;;4.70;4.30;;;16.00;99.90;;;;;;5084904;28;20032;-36
2023/09/03 05:54:01;;;;;;;4.35;3.95;;;16.10;99.90;;;;;;5084108;28;20076;-36
2023/09/03 05:56:26;;;;;;;5.18;4.68;;;16.10;99.90;;;;;;5084284;28;20039;-35
2023/09/03 05:58:52;;;;;;;4.65;4.20;;;16.20;99.90;;;;;;5084550;28;20133;-35
2023/09/03 06:01:18;;;;;;;4.28;3.97;;;16.20;99.90;;;;;;5083814;28;20078;-35
2023/09/03 06:03:43;;;;;;;4.78;4.32;;;16.20;99.90;;;;;;5084629;28;20024;-37
2023/09/03 06:06:11;;;;;;;5.53;5.03;;;16.20;99.90;;;;;;5083544;28;20395;-35
2023/09/03 06:08:37;;;;;;;4.30;3.80;;;16.20;99.90;;;;;;5084029;28;20058;-36
2023/09/03 06:11:04;;;;;;;4.53;4.10;;;16.30;99.90;;;;;;5083987;28;20028;-37
2023/09/03 06:13:31;;;;;;;4.25;3.85;;;16.30;99.90;;;;;;5084952;28;20024;-36
2023/09/03 06:15:58;;;;;;;4.70;4.20;;;16.30;99.90;;;;;;5083547;28;20028;-35
2023/09/03 06:18:24;;;;;;;4.40;4.00;;;16.40;99.90;;;;;;5084341;28;20028;-35
2023/09/03 06:20:51;;;;;;;5.82;4.20;;;16.40;99.90;;;;;;5085102;28;20024;-36
2023/09/03 06:23:18;;;;;;;4.82;4.32;;;16.40;99.90;;;;;;5083066;28;20016;-35
2023/09/03 06:25:50;;;;;;;6.18;4.40;;;16.50;99.90;;;;;;5085128;28;20036;-36
2023/09/03 06:28:16;;;;;;;4.30;3.80;;;16.50;99.90;;;;;;5083939;28;20024;-36
2023/09/03 06:30:42;;;;;;;4.22;3.83;;;16.60;99.90;;;;;;5084356;28;20073;-35
2023/09/03 06:33:08;;;;;;;4.50;3.50;;;16.70;99.90;;;;;;5083453;28;20127;-37
2023/09/03 06:35:34;;;;;;;5.40;4.10;;;16.70;99.90;;;;;;5084296;28;20580;-35
2023/09/03 06:38:00;;;;;;;4.25;3.67;;;16.80;99.90;;;;;;5083367;28;20164;-36
2023/09/03 06:40:26;;;;;;;4.13;3.72;;;16.80;99.90;;;;;;5083982;28;20511;-37
2023/09/03 06:42:52;;;;;;;4.10;3.80;;;16.90;99.90;;;;;;5084439;28;20012;-36
2023/09/03 06:45:18;;;;;;;5.32;4.20;;;16.90;99.90;;;;;;5082893;28;20680;-35
2023/09/03 06:47:44;;;;;;;4.90;4.20;;;17.00;99.90;;;;;;5083357;28;20066;-37
2023/09/03 06:50:10;;;;;;;4.85;4.35;;;17.00;99.90;;;;;;5083769;28;20107;-36
2023/09/03 06:52:36;;;;;;;4.75;4.07;;;17.10;99.90;;;;;;5083107;28;20032;-36
2023/09/03 06:55:02;;;;;;;4.75;4.10;;;17.20;99.90;;;;;;5083775;28;20049;-36
2023/09/03 06:57:28;;;;;;;4.15;3.72;;;17.20;99.90;;;;;;5084907;28;20078;-36
2023/09/03 06:59:57;;;;;;;4.05;3.63;;;17.30;99.90;;;;;;5083220;28;20062;-37
2023/09/03 07:02:23;;;;;;;4.95;3.70;;;17.30;99.90;;;;;;5087653;28;20746;-37
2023/09/03 07:04:49;;;;;;;3.92;3.53;;;17.40;99.90;;;;;;5086703;28;20025;-35
2023/09/03 07:07:14;;;;;;;4.22;3.53;;;17.50;99.90;;;;;;5087463;28;20073;-36
2023/09/03 07:09:40;;;;;;;4.18;3.75;;;17.50;99.90;;;;;;5087633;28;20069;-35
2023/09/03 07:12:06;;;;;;;3.85;3.50;;;17.60;99.90;;;;;;5086979;28;20047;-36
2023/09/03 07:14:35;;;;;;;3.60;3.30;;;17.60;99.90;;;;;;5088142;28;20016;-35
2023/09/03 07:17:03;;;;;;;3.20;2.90;;;17.70;99.90;;;;;;5087273;28;20028;-35
2023/09/03 07:19:30;;;;;;;3.40;3.10;;;17.80;99.90;;;;;;5087325;28;20016;-36
2023/09/03 07:21:56;;;;;;;4.15;3.20;;;17.90;99.90;;;;;;5070530;28;20071;-35
2023/09/03 07:24:22;;;;;;;3.55;3.25;;;17.90;99.90;;;;;;5078425;28;20042;-36
2023/09/03 07:26:47;;;;;;;3.97;3.67;;;18.00;99.90;;;;;;5087304;28;20027;-36
2023/09/03 07:29:14;;;;;;;4.82;3.75;;;18.00;99.90;;;;;;5087488;28;20066;-36
2023/09/03 07:31:41;;;;;;;3.97;3.55;;;18.00;99.90;;;;;;5087957;28;20089;-37
2023/09/03 07:34:16;;;;;;;3.17;2.88;;;18.10;99.90;;;;;;5085901;28;20048;-36
2023/09/03 07:36:42;;;;;;;3.80;3.13;;;18.10;99.90;;;;;;5078254;28;20119;-36
2023/09/03 07:39:11;;;;;;;5.40;3.80;;;18.10;99.90;;;;;;5086531;28;20095;-36
2023/09/03 07:41:37;;;;;;;3.35;3.05;;;18.20;99.90;;;;;;5086531;28;20595;-36
2023/09/03 07:44:04;;;;;;;3.45;3.15;;;18.20;99.90;;;;;;5087268;28;20051;-37
2023/09/03 07:46:31;;;;;;;2.92;2.72;;;18.20;99.90;;;;;;5087422;28;20028;-37
2023/09/03 07:48:59;;;;;;;3.17;2.88;;;18.20;99.90;;;;;;5086111;28;20169;-35
2023/09/03 07:51:25;;;;;;;3.30;2.83;;;18.20;99.90;;;;;;5086573;28;20474;-37
2023/09/03 07:53:50;;;;;;;3.38;2.50;;;18.30;99.90;;;;;;5087235;28;20109;-37
2023/09/03 07:56:17;;;;;;;3.13;2.55;;;18.30;99.90;;;;;;5085669;28;20020;-36
2023/09/03 07:58:46;;;;;;;3.65;2.63;;;18.30;99.90;;;;;;5087765;28;20535;-35
2023/09/03 08:01:16;;;;;;;2.97;2.67;;;18.30;99.90;;;;;;5085474;28;20083;-36
2023/09/03 08:03:47;;;;;;;3.63;2.95;;;18.30;99.90;;;;;;5067462;28;20112;-35
2023/09/03 08:06:15;;;;;;;2.90;2.60;;;18.40;99.90;;;;;;5081048;28;20460;-36
2023/09/03 08:08:54;;;;;;;2.70;2.50;;;18.40;99.90;;;;;;5086142;28;20028;-36
2023/09/03 08:11:21;;;;;;;2.72;2.53;;;18.40;99.90;;;;;;5086213;28;20048;-37
2023/09/03 08:13:50;;;;;;;4.80;2.70;;;18.40;99.90;;;;;;5086169;28;20752;-36
2023/09/03 08:16:16;;;;;;;3.03;2.28;;;18.40;99.90;;;;;;5085258;28;20017;-40
2023/09/03 08:18:44;;;;;;;2.50;2.30;;;18.40;99.90;;;;;;5086715;28;20039;-34
2023/09/03 08:21:10;;;;;;;3.78;2.65;;;18.40;99.90;;;;;;5086129;28;20099;-37
2023/09/03 08:23:36;;;;;;;2.80;2.55;;;18.40;99.90;;;;;;5086167;28;20103;-36
2023/09/03 08:26:01;;;;;;;2.55;2.35;;;18.50;99.90;;;;;;5085488;28;20040;-36
2023/09/03 08:28:27;;;;;;;3.20;2.90;;;18.50;99.90;;;;;;5086417;28;20031;-36
2023/09/03 08:30:52;;;;;;;3.25;2.95;;;18.60;99.90;;;;;;5085944;28;20455;-36
2023/09/03 08:33:18;;;;;;;3.20;2.75;;;18.60;99.90;;;;;;5086173;28;20032;-36
2023/09/03 08:35:47;;;;;;;2.60;2.40;;;18.60;99.90;;;;;;5085725;28;20428;-37
2023/09/03 08:38:12;;;;;;;3.53;2.75;;;18.60;99.90;;;;;;5084817;28;20035;-35
2023/09/03 08:40:43;;;;;;;3.25;2.75;;;18.70;99.90;;;;;;5085921;28;20043;-36
2023/09/03 08:43:14;;;;;;;3.08;2.83;;;18.80;99.90;;;;;;5084950;28;20038;-36
2023/09/03 08:45:51;;;;;;;3.53;3.05;;;18.80;99.90;;;;;;5085197;28;20070;-36
2023/09/03 08:48:19;;;;;;;3.63;3.00;;;18.80;99.90;;;;;;5080477;28;20637;-36
2023/09/03 08:50:46;;;;;;;3.47;3.00;;;18.90;99.90;;;;;;5085224;28;20112;-35
2023/09/03 08:53:12;;;;;;;2.97;2.67;;;18.90;99.90;;;;;;5085393;28;20036;-36
2023/09/03 08:55:44;;;;;;;2.50;2.30;;;19.00;99.90;;;;;;5086106;28;20024;-36
2023/09/03 08:58:09;;;;;;;3.65;2.88;;;19.00;99.90;;;;;;5084506;28;20024;-36
2023/09/03 09:00:37;;;;;;;3.35;2.80;;;19.10;99.90;;;;;;5085235;28;20044;-36
2023/09/03 09:03:06;;;;;;;2.65;2.42;;;19.10;99.90;;;;;;5084581;28;20082;-34
2023/09/03 09:05:32;;;;;;;2.88;2.67;;;19.20;99.90;;;;;;5085290;28;20395;-33
2023/09/03 09:08:07;;;;;;;3.05;2.78;;;19.20;99.90;;;;;;5085140;28;20051;-35
2023/09/03 09:10:37;;;;;;;3.22;2.92;;;19.30;99.90;;;;;;5085551;28;20028;-36
2023/09/03 09:13:11;;;;;;;3.20;2.90;;;19.40;99.90;;;;;;5084380;28;20050;-35
2023/09/03 09:15:42;;;;;;;3.63;3.13;;;19.40;99.90;;;;;;5085720;28;20062;-33
2023/09/03 09:18:09;;;;;;;3.58;2.47;;;19.50;99.90;;;;;;5084752;28;20097;-34
2023/09/03 09:20:38;;;;;;;3.58;2.85;;;19.50;99.90;;;;;;5084939;28;20031;-35
2023/09/03 09:23:04;;;;;;;1.98;1.77;;;19.50;99.90;;;;;;5084248;28;20024;-35
2023/09/03 09:25:30;;;;;;;2.65;2.45;;;19.60;99.90;;;;;;5085433;28;20030;-36
2023/09/03 09:27:59;;;;;;;2.55;2.05;;;19.60;99.90;;;;;;5084706;28;20470;-35
2023/09/03 09:30:25;;;;;;;2.38;1.92;;;19.70;99.90;;;;;;5085189;28;20016;-36
2023/09/03 09:33:05;;;;;;;2.20;2.00;;;19.70;99.90;;;;;;5084629;28;20081;-35
2023/09/03 09:35:31;;;;;;;2.40;2.00;;;19.70;99.90;;;;;;5074914;28;20035;-36
2023/09/03 09:38:07;;;;;;;2.35;1.92;;;19.80;99.90;;;;;;5084943;28;20070;-37
2023/09/03 09:40:36;;;;;;;3.00;2.20;;;19.80;99.90;;;;;;5084751;28;20116;-35
2023/09/03 09:43:06;;;;;;;3.20;1.98;;;19.80;99.90;;;;;;5084482;28;20048;-37
2023/09/03 09:45:33;;;;;;;2.15;1.95;;;19.80;99.90;;;;;;5084444;28;20463;-36
2023/09/03 09:48:03;;;;;;;1.75;1.65;;;19.90;99.90;;;;;;5083957;28;20058;-35
2023/09/03 09:50:43;;;;;;;1.90;1.70;;;20.00;99.90;;;;;;5081067;28;20036;-36
2023/09/03 09:53:21;;;;;;;1.60;1.50;;;20.00;99.90;;;;;;5084469;28;20432;-34
2023/09/03 09:55:46;;;;;;;2.63;2.42;;;20.10;99.90;;;;;;5081877;28;20024;-37
2023/09/03 09:58:15;;;;;;;3.00;2.60;;;20.10;99.90;;;;;;5084032;28;20096;-35
2023/09/03 10:00:41;;;;;;;2.53;2.20;;;20.20;99.90;;;;;;5082966;28;20075;-35
2023/09/03 10:03:15;;;;;;;2.65;2.42;;;20.20;99.90;;;;;;5084610;28;20074;-35
2023/09/03 10:05:50;;;;;;;2.00;1.80;;;20.20;99.90;;;;;;5084358;28;20036;-36
2023/09/03 10:08:17;;;;;;;2.33;1.98;;;20.30;99.90;;;;;;5083810;28;20519;-36
2023/09/03 10:10:46;;;;;;;2.03;1.52;;;20.30;99.90;;;;;;5084706;28;20549;-36
2023/09/03 10:13:11;;;;;;;1.52;1.40;;;20.40;99.90;;;;;;5084240;28;20047;-37
2023/09/03 10:15:42;;;;;;;2.00;1.52;;;20.40;99.90;;;;;;5083433;28;20020;-34
2023/09/03 10:18:08;;;;;;;1.90;1.50;;;20.50;99.90;;;;;;5083893;28;20028;-35
2023/09/03 10:20:34;;;;;;;1.33;1.17;;;20.50;99.90;;;;;;5084964;28;20028;-34
2023/09/03 10:23:04;;;;;;;1.30;1.20;;;20.60;99.90;;;;;;5083459;28;20553;-35
2023/09/03 10:25:33;;;;;;;1.10;1.00;;;20.70;99.90;;;;;;5084438;28;20035;-35
2023/09/03 10:28:04;;;;;;;0.90;0.90;;;20.70;99.90;;;;;;5084750;28;20044;-36
2023/09/03 10:30:34;;;;;;;1.20;1.10;;;20.80;99.90;;;;;;5083614;28;20025;-36
2023/09/03 10:33:01;;;;;;;1.10;1.00;;;20.80;99.90;;;;;;5084156;28;20043;-35
2023/09/03 10:35:26;;;;;;;4.22;1.30;;;20.90;99.90;;;;;;5085901;28;20070;-36
2023/09/03 10:37:52;;;;;;;0.98;0.95;;;20.90;99.90;;;;;;5088656;28;20478;-36
2023/09/03 10:40:27;;;;;;;1.90;1.00;;;20.90;99.90;;;;;;5087508;28;20540;-36
2023/09/03 10:43:14;;;;;;;1.08;0.80;;;20.90;99.90;;;;;;5088231;28;20070;-38
2023/09/03 10:45:40;;;;;;;0.80;0.80;;;20.90;99.90;;;;;;5087824;28;20020;-35
2023/09/03 10:48:10;;;;;;;1.65;0.88;;;21.00;99.90;;;;;;5087973;28;20518;-34
2023/09/03 10:50:48;;;;;;;1.23;1.10;;;21.00;99.90;;;;;;5088334;28;20031;-35
2023/09/03 10:53:39;;;;;;;1.23;1.10;;;21.10;99.90;;;;;;5087986;28;20085;-35
2023/09/03 10:56:14;;;;;;;1.52;0.75;;;21.10;99.90;;;;;;5087243;28;20020;-37
2023/09/03 10:58:59;;;;;;;1.08;0.98;;;21.20;99.90;;;;;;5087715;28;20020;-37
2023/09/03 11:01:34;;;;;;;1.02;1.00;;;21.20;99.90;;;;;;5087987;28;20520;-36
2023/09/03 11:04:03;;;;;;;1.45;1.25;;;21.30;99.90;;;;;;5087134;28;20138;-37
2023/09/03 11:06:31;;;;;;;1.10;1.08;;;21.40;99.90;;;;;;5088577;28;20069;-35
2023/09/03 11:08:59;;;;;;;1.30;1.20;;;21.40;99.90;;;;;;5088093;28;20024;-36
2023/09/03 11:11:33;;;;;;;1.20;1.10;;;21.40;99.90;;;;;;5087431;28;20637;-35
2023/09/03 11:13:59;;;;;;;1.95;1.20;;;21.40;99.90;;;;;;5087668;28;20111;-39
2023/09/03 11:16:33;;;;;;;1.70;1.02;;;21.40;99.90;;;;;;5087807;28;20023;-36
2023/09/03 11:19:00;;;;;;;1.40;1.25;;;21.50;99.90;;;;;;5077168;28;20089;-36
2023/09/03 11:21:26;;;;;;;1.05;1.00;;;21.50;99.90;;;;;;5088158;28;20020;-37
2023/09/03 11:24:05;;;;;;;1.30;1.10;;;21.60;99.90;;;;;;5088371;28;20387;-37
2023/09/03 11:26:33;;;;;;;1.10;1.00;;;21.60;99.90;;;;;;5087337;28;20094;-36
2023/09/03 11:29:02;;;;;;;1.55;1.30;;;21.70;99.90;;;;;;5087336;28;20558;-36
2023/09/03 11:31:47;;;;;;;1.17;1.00;;;21.70;99.90;;;;;;5088332;28;20030;-36
2023/09/03 11:34:20;;;;;;;0.95;0.77;;;21.80;99.90;;;;;;5085380;28;20470;-35
2023/09/03 11:36:49;;;;;;;0.73;0.73;;;21.80;99.90;;;;;;5087530;28;20028;-35
2023/09/03 11:39:16;;;;;;;0.75;0.75;;;21.80;99.90;;;;;;5086482;28;20015;-36
2023/09/03 11:41:45;;;;;;;1.10;0.90;;;21.90;99.90;;;;;;5087298;28;20031;-36
2023/09/03 11:44:20;;;;;;;1.52;0.85;;;21.90;99.90;;;;;;5085911;28;20023;-36
2023/09/03 11:46:59;;;;;;;0.75;0.70;;;21.90;99.90;;;;;;5085912;28;20024;-36
2023/09/03 11:49:24;;;;;;;1.10;0.90;;;22.00;99.90;;;;;;5086913;28;20016;-37
2023/09/03 11:51:52;;;;;;;0.95;0.90;;;22.00;99.90;;;;;;5086792;28;20035;-37
2023/09/03 11:54:30;;;;;;;1.17;1.00;;;22.10;99.90;;;;;;5085668;28;20044;-36
2023/09/03 11:56:58;;;;;;;1.63;1.10;;;22.20;99.90;;;;;;5087401;28;20034;-34
2023/09/03 11:59:24;;;;;;;0.98;0.98;;;22.30;99.90;;;;;;5086738;28;20093;-33
2023/09/03 12:01:53;;;;;;;3.00;1.48;;;22.40;99.90;;;;;;5086851;28;20035;-39
2023/09/03 12:04:20;;;;;;;1.10;1.10;;;22.50;99.90;;;;;;5086057;28;20517;-36
2023/09/03 12:06:45;;;;;;;1.08;0.98;;;22.60;99.90;;;;;;5086830;28;20027;-36
2023/09/03 12:09:11;;;;;;;1.02;0.93;;;22.60;99.90;;;;;;5085733;28;20020;-36
2023/09/03 12:11:37;;;;;;;1.10;1.00;;;22.70;99.90;;;;;;5086907;28;20034;-37
2023/09/03 12:14:02;;;;;;;1.58;0.98;;;22.80;99.90;;;;;;5086321;28;20039;-36
2023/09/03 12:16:28;;;;;;;0.63;0.63;;;22.80;99.90;;;;;;5086000;28;20031;-37
2023/09/03 12:19:01;;;;;;;0.73;0.73;;;22.90;99.90;;;;;;5086009;28;20101;-35
2023/09/03 12:21:40;;;;;;;0.70;0.70;;;23.00;99.90;;;;;;5086332;28;20478;-36
2023/09/03 12:24:06;;;;;;;1.05;0.75;;;23.10;99.90;;;;;;5086149;28;20477;-36
2023/09/03 12:26:36;;;;;;;0.65;0.63;;;23.10;99.90;;;;;;5086213;28;20047;-35
2023/09/03 12:29:06;;;;;;;0.70;0.70;;;23.10;99.90;;;;;;5085068;28;20083;-36
2023/09/03 12:31:44;;;;;;;0.93;0.68;;;23.10;99.90;;;;;;5086308;28;20039;-37
2023/09/03 12:34:11;;;;;;;0.70;0.70;;;23.10;99.90;;;;;;5085223;28;20061;-36
2023/09/03 12:36:56;;;;;;;0.95;0.75;;;23.10;99.90;;;;;;5085507;28;20032;-36
2023/09/03 12:39:41;;;;;;;0.77;0.70;;;23.10;99.90;;;;;;5085750;28;20376;-36
2023/09/03 12:42:07;;;;;;;0.80;0.80;;;23.10;99.90;;;;;;5085579;28;20027;-35
2023/09/03 12:44:36;;;;;;;0.75;0.70;;;23.10;99.90;;;;;;5085291;28;20024;-36
2023/09/03 12:47:05;;;;;;;0.52;0.52;;;23.10;99.90;;;;;;5085636;28;20501;-37
2023/09/03 12:49:30;;;;;;;0.70;0.70;;;23.10;99.90;;;;;;5084779;28;20020;-37
2023/09/03 12:51:59;;;;;;;1.52;0.75;;;23.00;99.90;;;;;;5085452;28;20032;-36
2023/09/03 12:54:27;;;;;;;0.80;0.77;;;23.00;99.90;;;;;;5085827;28;20148;-36
2023/09/03 12:56:56;;;;;;;0.80;0.80;;;22.90;99.90;;;;;;5085579;28;20023;-36